createdAt,value
2023-02-15T00:00:15.717Z,21.13
2023-02-15T00:02:43.789Z,19.20
2023-02-15T00:05:13.360Z,24.60
2023-02-15T00:07:41.475Z,25.70
2023-02-15T00:10:11.961Z,18.97
2023-02-15T00:12:40.027Z,20.80
2023-02-15T00:15:08.988Z,21.40
2023-02-15T00:17:36.967Z,20.27
2023-02-15T00:20:05.557Z,20.63
2023-02-15T00:22:34.999Z,21.30
2023-02-15T00:25:03.248Z,20.70
2023-02-15T00:27:31.305Z,23.73
2023-02-15T00:29:59.470Z,19.87
2023-02-15T00:32:27.503Z,19.70
2023-02-15T00:34:55.486Z,26.50
2023-02-15T00:37:25.868Z,19.13
2023-02-15T00:39:55.257Z,22.57
2023-02-15T00:42:23.262Z,21.73
2023-02-15T00:44:51.330Z,20.00
2023-02-15T00:47:19.395Z,18.73
2023-02-15T00:49:47.530Z,22.53
2023-02-15T00:52:15.519Z,24.70
2023-02-15T00:54:43.541Z,18.57
2023-02-15T00:57:12.875Z,19.60
2023-02-15T00:59:40.889Z,19.67
2023-02-15T01:02:08.969Z,17.93
2023-02-15T01:04:36.995Z,18.17
2023-02-15T01:07:05.118Z,18.50
2023-02-15T01:09:34.876Z,14.20
2023-02-15T01:12:05.109Z,20.80
2023-02-15T01:14:34.481Z,23.20
2023-02-15T01:17:02.476Z,19.27
2023-02-15T01:19:30.498Z,18.07
2023-02-15T01:21:58.563Z,18.20
2023-02-15T01:24:26.520Z,20.47
2023-02-15T01:26:54.648Z,18.90
2023-02-15T01:29:22.958Z,21.23
2023-02-15T01:31:52.529Z,21.57
2023-02-15T01:34:20.651Z,19.57
2023-02-15T01:36:49.155Z,19.40
2023-02-15T01:39:17.186Z,21.67
2023-02-15T01:41:45.314Z,16.30
2023-02-15T01:44:49.342Z,16.77
2023-02-15T01:47:24.136Z,18.03
2023-02-15T01:50:05.327Z,22.83
2023-02-15T01:52:35.708Z,19.60
2023-02-15T01:55:07.174Z,22.77
2023-02-15T01:57:36.296Z,17.93
2023-02-15T02:00:08.724Z,19.47
2023-02-15T02:02:46.002Z,17.20
2023-02-15T02:05:14.213Z,18.63
2023-02-15T02:07:46.414Z,18.17
2023-02-15T02:10:18.485Z,20.83
2023-02-15T02:12:50.166Z,19.50
2023-02-15T02:15:19.251Z,17.50
2023-02-15T02:18:08.798Z,18.87
2023-02-15T02:21:02.453Z,16.87
2023-02-15T02:23:57.758Z,16.83
2023-02-15T02:27:14.658Z,17.60
2023-02-15T02:30:10.988Z,15.53
2023-02-15T02:33:15.090Z,17.27
2023-02-15T02:35:56.110Z,17.23
2023-02-15T02:38:32.555Z,16.90
2023-02-15T02:41:18.857Z,20.33
2023-02-15T02:43:53.831Z,18.17
2023-02-15T02:46:28.756Z,17.93
2023-02-15T02:48:59.168Z,16.57
2023-02-15T02:51:27.228Z,17.27
2023-02-15T02:54:00.195Z,19.33
2023-02-15T02:56:33.863Z,17.43
2023-02-15T02:59:09.546Z,20.87
2023-02-15T03:01:43.323Z,16.83
2023-02-15T03:04:17.339Z,17.10
2023-02-15T03:06:52.797Z,18.23
2023-02-15T03:09:35.459Z,18.20
2023-02-15T03:12:05.182Z,15.50
2023-02-15T03:14:38.665Z,16.60
2023-02-15T03:17:11.102Z,20.87
2023-02-15T03:19:42.121Z,22.13
2023-02-15T03:22:16.935Z,21.60
2023-02-15T03:24:51.231Z,21.23
2023-02-15T03:27:24.022Z,20.07
2023-02-15T03:29:58.820Z,24.83
2023-02-15T03:32:30.073Z,25.80
2023-02-15T03:35:00.273Z,22.67
2023-02-15T03:37:37.446Z,21.50
2023-02-15T03:40:27.110Z,19.20
2023-02-15T03:43:03.285Z,16.27
2023-02-15T03:45:35.243Z,18.40
2023-02-15T03:48:09.289Z,15.87
2023-02-15T03:50:58.926Z,14.77
2023-02-15T03:53:28.146Z,14.63
2023-02-15T03:55:57.517Z,15.20
2023-02-15T03:58:42.996Z,18.97
2023-02-15T04:01:40.348Z,17.67
2023-02-15T04:04:16.777Z,17.33
2023-02-15T04:06:51.522Z,22.00
2023-02-15T04:09:37.703Z,15.83
2023-02-15T04:12:06.407Z,18.80
2023-02-15T04:14:52.129Z,17.27
2023-02-15T04:17:20.511Z,17.73
2023-02-15T04:20:05.947Z,20.60
2023-02-15T04:22:52.886Z,17.77
2023-02-15T04:25:21.139Z,15.90
2023-02-15T04:27:52.232Z,18.07
2023-02-15T04:30:23.255Z,21.63
2023-02-15T04:32:51.368Z,21.60
2023-02-15T04:35:19.664Z,16.50
2023-02-15T04:37:49.072Z,18.30
2023-02-15T04:40:19.671Z,19.40
2023-02-15T04:42:50.101Z,15.53
2023-02-15T04:45:18.960Z,21.40
2023-02-15T04:47:47.050Z,17.30
2023-02-15T04:50:15.110Z,17.50
2023-02-15T04:52:43.144Z,14.63
2023-02-15T04:55:12.576Z,17.20
2023-02-15T04:57:40.805Z,18.03
2023-02-15T05:00:10.681Z,18.10
2023-02-15T05:02:38.787Z,15.33
2023-02-15T05:05:08.251Z,18.10
2023-02-15T05:07:36.274Z,16.90
2023-02-15T05:10:05.004Z,16.97
2023-02-15T05:12:34.450Z,17.20
2023-02-15T05:15:02.478Z,15.60
2023-02-15T05:17:30.517Z,16.80
2023-02-15T05:19:58.525Z,16.67
2023-02-15T05:22:26.649Z,16.67
2023-02-15T05:25:12.441Z,16.30
2023-02-15T05:27:59.371Z,16.47
2023-02-15T05:30:27.635Z,17.63
2023-02-15T05:32:55.846Z,15.07
2023-02-15T05:35:24.062Z,16.20
2023-02-15T05:37:52.130Z,17.63
2023-02-15T05:40:20.471Z,17.77
2023-02-15T05:42:49.846Z,12.70
2023-02-15T05:45:19.134Z,13.83
2023-02-15T05:47:48.603Z,19.33
2023-02-15T05:50:17.162Z,19.27
2023-02-15T05:52:45.308Z,20.93
2023-02-15T05:55:13.545Z,17.10
2023-02-15T05:57:41.657Z,16.10
2023-02-15T06:00:13.263Z,16.20
2023-02-15T06:02:41.652Z,17.63
2023-02-15T06:05:14.193Z,16.57
2023-02-15T06:07:45.831Z,16.83
2023-02-15T06:10:14.158Z,15.80
2023-02-15T06:12:42.219Z,13.77
2023-02-15T06:15:11.910Z,14.00
2023-02-15T06:17:40.169Z,14.30
2023-02-15T06:20:10.303Z,17.27
2023-02-15T06:22:38.459Z,13.67
2023-02-15T06:25:10.935Z,15.50
2023-02-15T06:27:39.282Z,15.13
2023-02-15T06:30:09.771Z,15.70
2023-02-15T06:32:39.319Z,14.47
2023-02-15T06:35:08.068Z,18.73
2023-02-15T06:37:36.103Z,20.40
2023-02-15T06:40:05.128Z,23.10
2023-02-15T06:42:33.350Z,24.33
2023-02-15T06:45:01.574Z,28.50
2023-02-15T06:47:29.673Z,20.17
2023-02-15T06:49:59.475Z,16.73
2023-02-15T06:52:28.028Z,15.13
2023-02-15T06:54:56.135Z,15.60
2023-02-15T06:57:24.185Z,16.70
2023-02-15T06:59:53.776Z,16.53
2023-02-15T07:02:21.818Z,15.33
2023-02-15T07:04:49.879Z,15.13
2023-02-15T07:07:19.675Z,16.37
2023-02-15T07:09:47.716Z,17.50
2023-02-15T07:12:33.311Z,15.30
2023-02-15T07:15:01.432Z,15.30
2023-02-15T07:17:38.083Z,12.73
2023-02-15T07:20:09.707Z,14.73
2023-02-15T07:22:39.633Z,18.47
2023-02-15T07:25:11.631Z,14.67
2023-02-15T07:27:40.793Z,13.40
2023-02-15T07:30:12.551Z,13.43
2023-02-15T07:33:04.246Z,16.77
2023-02-15T07:35:33.045Z,14.80
2023-02-15T07:38:03.207Z,19.63
2023-02-15T07:40:31.388Z,18.30
2023-02-15T07:43:00.538Z,23.83
2023-02-15T07:45:28.883Z,17.07
2023-02-15T07:47:56.996Z,16.43
2023-02-15T07:50:25.263Z,19.67
2023-02-15T07:52:53.355Z,17.93
2023-02-15T07:55:23.029Z,20.73
2023-02-15T07:57:54.868Z,15.73
2023-02-15T08:00:25.877Z,15.90
2023-02-15T08:03:15.739Z,13.93
2023-02-15T08:05:46.492Z,18.70
2023-02-15T08:08:30.712Z,17.80
2023-02-15T08:11:23.916Z,16.70
2023-02-15T08:13:57.491Z,17.13
2023-02-15T08:16:26.932Z,19.53
2023-02-15T08:18:55.130Z,17.80
2023-02-15T08:21:24.985Z,17.43
2023-02-15T08:23:53.672Z,19.33
2023-02-15T08:26:23.614Z,20.73
2023-02-15T08:28:53.195Z,18.07
2023-02-15T08:31:22.709Z,19.93
2023-02-15T08:33:52.827Z,19.27
2023-02-15T08:36:23.529Z,21.93
2023-02-15T08:38:51.794Z,23.80
2023-02-15T08:41:23.615Z,17.90
2023-02-15T08:43:55.260Z,15.53
2023-02-15T08:46:25.686Z,21.17
2023-02-15T08:48:54.146Z,15.13
2023-02-15T08:51:24.693Z,17.77
2023-02-15T08:53:55.371Z,19.43
2023-02-15T08:56:28.395Z,14.03
2023-02-15T08:58:56.873Z,15.60
2023-02-15T09:01:26.891Z,16.00
2023-02-15T09:04:00.100Z,15.13
2023-02-15T09:06:29.627Z,16.73
2023-02-15T09:08:58.480Z,17.17
2023-02-15T09:11:30.051Z,15.77
2023-02-15T09:14:00.991Z,16.80
2023-02-15T09:16:31.936Z,16.93
2023-02-15T09:19:02.062Z,15.83
2023-02-15T09:21:31.357Z,13.97
2023-02-15T09:24:02.045Z,14.37
2023-02-15T09:26:34.025Z,15.23
2023-02-15T09:29:04.497Z,15.83
2023-02-15T09:31:35.601Z,15.10
2023-02-15T09:34:04.071Z,13.93
2023-02-15T09:36:35.562Z,15.47
2023-02-15T09:39:09.544Z,17.43
2023-02-15T09:42:23.041Z,16.37
2023-02-15T09:45:27.090Z,16.67
2023-02-15T09:48:21.552Z,15.53
2023-02-15T09:51:05.424Z,14.00
2023-02-15T09:54:03.398Z,13.90
2023-02-15T09:56:38.369Z,15.00
2023-02-15T09:59:19.993Z,14.60
2023-02-15T10:02:00.764Z,18.57
2023-02-15T10:04:48.862Z,20.67
2023-02-15T10:07:35.597Z,13.43
2023-02-15T10:10:22.778Z,13.83
2023-02-15T10:13:10.615Z,13.73
2023-02-15T10:15:56.717Z,15.93
2023-02-15T10:18:48.727Z,14.77
2023-02-15T10:21:29.552Z,14.47
2023-02-15T10:24:22.314Z,11.47
2023-02-15T10:26:51.318Z,11.77
2023-02-15T10:29:32.248Z,12.97
2023-02-15T10:32:13.453Z,17.03
2023-02-15T10:34:45.363Z,17.57
2023-02-15T10:37:48.639Z,13.80
2023-02-15T10:40:27.109Z,13.27
2023-02-15T10:43:22.714Z,14.53
2023-02-15T10:46:03.967Z,17.63
2023-02-15T10:49:13.529Z,15.70
2023-02-15T10:51:56.014Z,13.70
2023-02-15T10:54:37.452Z,14.87
2023-02-15T10:57:14.351Z,13.53
2023-02-15T11:00:06.579Z,15.47
2023-02-15T11:02:53.255Z,23.07
2023-02-15T11:05:43.376Z,14.67
2023-02-15T11:08:13.923Z,15.17
2023-02-15T11:10:46.493Z,14.67
2023-02-15T11:13:18.947Z,13.70
2023-02-15T11:15:51.446Z,13.53
2023-02-15T11:18:28.292Z,14.97
2023-02-15T11:21:04.239Z,14.57
2023-02-15T11:23:37.505Z,31.73
2023-02-15T11:26:14.010Z,17.10
2023-02-15T11:28:51.142Z,12.97
2023-02-15T11:31:22.273Z,15.07
2023-02-15T11:33:55.219Z,13.87
2023-02-15T11:36:29.927Z,14.60
2023-02-15T11:39:04.696Z,19.70
2023-02-15T11:41:39.801Z,14.83
2023-02-15T11:44:16.305Z,14.03
2023-02-15T11:46:44.560Z,12.57
2023-02-15T11:49:29.378Z,14.57
2023-02-15T11:52:00.216Z,16.43
2023-02-15T11:54:31.672Z,17.20
2023-02-15T11:57:06.203Z,16.23
2023-02-15T11:59:38.317Z,18.77
2023-02-15T12:02:18.355Z,15.80
2023-02-15T12:04:52.948Z,13.40
2023-02-15T12:07:27.030Z,15.13
2023-02-15T12:10:05.124Z,12.27
2023-02-15T12:12:36.492Z,13.23
2023-02-15T12:15:07.805Z,14.63
2023-02-15T12:17:41.174Z,14.00
2023-02-15T12:20:27.006Z,15.33
2023-02-15T12:23:03.259Z,11.80
2023-02-15T12:25:38.295Z,15.30
2023-02-15T12:28:25.521Z,14.60
2023-02-15T12:30:55.604Z,13.23
2023-02-15T12:33:32.403Z,15.97
2023-02-15T12:36:05.653Z,14.77
2023-02-15T12:38:35.334Z,14.17
2023-02-15T12:41:06.577Z,14.83
2023-02-15T12:43:37.779Z,16.53
2023-02-15T12:46:25.394Z,14.10
2023-02-15T12:49:21.394Z,16.30
2023-02-15T12:51:52.579Z,14.83
2023-02-15T12:54:35.293Z,14.43
2023-02-15T12:57:23.581Z,18.30
2023-02-15T12:59:54.300Z,17.43
2023-02-15T13:02:28.781Z,15.13
2023-02-15T13:04:59.418Z,21.80
2023-02-15T13:07:33.531Z,18.00
2023-02-15T13:10:03.029Z,17.37
2023-02-15T13:12:34.569Z,18.00
2023-02-15T13:15:05.552Z,19.23
2023-02-15T13:17:35.725Z,18.40
2023-02-15T13:20:08.530Z,18.13
2023-02-15T13:22:43.863Z,19.33
2023-02-15T13:25:19.998Z,18.93
2023-02-15T13:27:54.907Z,19.10
2023-02-15T13:30:27.980Z,27.30
2023-02-15T13:33:00.101Z,19.40
2023-02-15T13:35:40.081Z,22.00
2023-02-15T13:38:38.718Z,20.87
2023-02-15T13:41:14.688Z,23.50
2023-02-15T13:43:54.514Z,20.43
2023-02-15T13:46:44.147Z,21.20
2023-02-15T13:49:27.062Z,16.57
2023-02-15T13:52:06.344Z,16.90
2023-02-15T13:54:50.546Z,19.37
2023-02-15T13:57:48.305Z,24.10
2023-02-15T14:00:24.365Z,22.63
2023-02-15T14:03:40.774Z,23.07
2023-02-15T14:06:26.846Z,21.50
2023-02-15T14:09:11.576Z,22.43
2023-02-15T14:11:49.255Z,21.53
2023-02-15T14:14:43.651Z,22.87
2023-02-15T14:17:21.896Z,22.40
2023-02-15T14:19:56.538Z,21.77
2023-02-15T14:22:33.658Z,21.33
2023-02-15T14:25:19.117Z,19.83
2023-02-15T14:27:58.218Z,23.93
2023-02-15T14:30:33.696Z,23.90
2023-02-15T14:33:07.753Z,21.00
2023-02-15T14:35:38.080Z,17.90
2023-02-15T14:38:15.685Z,19.67
2023-02-15T14:41:03.914Z,20.70
2023-02-15T14:43:48.720Z,19.90
2023-02-15T14:46:32.210Z,18.10
2023-02-15T14:49:11.302Z,26.83
2023-02-15T14:52:09.312Z,18.83
2023-02-15T14:55:01.026Z,22.47
2023-02-15T14:57:38.089Z,18.63
2023-02-15T15:00:39.988Z,19.33
2023-02-15T15:03:25.423Z,21.33
2023-02-15T15:06:00.984Z,25.50
2023-02-15T15:08:38.375Z,25.13
2023-02-15T15:11:45.661Z,22.03
2023-02-15T15:14:43.816Z,29.30
2023-02-15T15:17:14.947Z,27.60
2023-02-15T15:20:15.360Z,24.93
2023-02-15T15:22:44.856Z,23.67
2023-02-15T15:25:46.729Z,29.50
2023-02-15T15:28:59.992Z,21.47
2023-02-15T15:31:45.954Z,26.70
2023-02-15T15:35:01.786Z,24.50
2023-02-15T15:38:19.451Z,22.50
2023-02-15T15:41:24.002Z,22.20
2023-02-15T15:44:47.008Z,24.57
2023-02-15T15:47:39.807Z,26.73
2023-02-15T15:50:15.870Z,22.67
2023-02-15T15:52:51.159Z,29.60
2023-02-15T15:55:22.998Z,24.67
2023-02-15T15:57:55.500Z,27.40
2023-02-15T16:00:39.276Z,25.00
2023-02-15T16:03:07.895Z,28.97
2023-02-15T16:05:40.387Z,23.37
2023-02-15T16:08:09.320Z,27.03
2023-02-15T16:10:38.927Z,25.87
2023-02-15T16:13:09.309Z,23.23
2023-02-15T16:15:46.005Z,24.47
2023-02-15T16:18:17.837Z,31.10
2023-02-15T16:20:53.950Z,26.83
2023-02-15T16:23:54.743Z,24.03
2023-02-15T16:26:46.280Z,21.50
2023-02-15T16:29:20.764Z,29.40
2023-02-15T16:32:01.811Z,26.23
2023-02-15T16:34:33.390Z,23.70
2023-02-15T16:37:18.895Z,26.00
2023-02-15T16:39:49.413Z,23.03
2023-02-15T16:42:18.931Z,25.23
2023-02-15T16:44:53.503Z,24.07
2023-02-15T16:47:26.722Z,34.80
2023-02-15T16:50:00.586Z,36.30
2023-02-15T16:52:30.041Z,29.67
2023-02-15T16:55:01.729Z,27.47
2023-02-15T16:57:34.390Z,26.57
2023-02-15T17:00:09.663Z,27.03
2023-02-15T17:02:54.898Z,26.37
2023-02-15T17:05:25.321Z,30.87
2023-02-15T17:08:15.946Z,29.77
2023-02-15T17:11:12.878Z,27.23
2023-02-15T17:14:02.176Z,28.23
2023-02-15T17:16:32.896Z,24.83
2023-02-15T17:19:03.158Z,24.57
2023-02-15T17:21:35.379Z,29.43
2023-02-15T17:24:05.903Z,26.50
2023-02-15T17:26:38.064Z,31.30
2023-02-15T17:29:22.981Z,27.27
2023-02-15T17:31:54.226Z,29.27
2023-02-15T17:34:47.633Z,23.33
2023-02-15T17:37:28.250Z,21.93
2023-02-15T17:39:57.239Z,33.00
2023-02-15T17:42:27.052Z,57.43
2023-02-15T17:44:55.786Z,61.73
2023-02-15T17:47:27.829Z,62.23
2023-02-15T17:49:56.115Z,55.93
2023-02-15T17:52:32.079Z,31.23
2023-02-15T17:55:19.196Z,22.30
2023-02-15T17:57:48.659Z,23.93
2023-02-15T18:00:35.593Z,22.93
2023-02-15T18:03:21.359Z,27.33
2023-02-15T18:06:06.919Z,28.17
2023-02-15T18:08:52.522Z,22.43
2023-02-15T18:11:39.003Z,24.30
2023-02-15T18:14:11.300Z,26.23
2023-02-15T18:16:43.224Z,21.47
2023-02-15T18:19:18.301Z,21.33
2023-02-15T18:21:47.329Z,18.20
2023-02-15T18:24:21.858Z,23.50
2023-02-15T18:26:49.933Z,20.13
2023-02-15T18:29:19.442Z,19.70
2023-02-15T18:31:53.145Z,23.13
2023-02-15T18:34:29.240Z,24.27
2023-02-15T18:36:58.801Z,23.20
2023-02-15T18:39:35.196Z,26.57
2023-02-15T18:42:04.440Z,20.57
2023-02-15T18:44:34.026Z,23.63
2023-02-15T18:47:02.099Z,26.60
2023-02-15T18:49:30.127Z,25.10
2023-02-15T18:51:58.204Z,26.63
2023-02-15T18:54:27.001Z,23.10
2023-02-15T18:56:58.456Z,20.17
2023-02-15T18:59:30.427Z,22.43
2023-02-15T19:02:01.172Z,33.47
2023-02-15T19:04:29.308Z,31.47
2023-02-15T19:06:58.457Z,25.73
2023-02-15T19:09:27.803Z,25.03
2023-02-15T19:11:57.382Z,23.80
2023-02-15T19:14:29.287Z,22.00
2023-02-15T19:17:01.153Z,26.40
2023-02-15T19:19:54.321Z,21.37
2023-02-15T19:22:27.831Z,23.50
2023-02-15T19:24:59.445Z,20.87
2023-02-15T19:27:31.151Z,22.57
2023-02-15T19:30:03.289Z,24.03
2023-02-15T19:32:32.779Z,21.30
2023-02-15T19:35:00.894Z,27.57
2023-02-15T19:37:58.379Z,26.97
2023-02-15T19:40:31.399Z,23.77
2023-02-15T19:43:00.530Z,22.07
2023-02-15T19:45:31.370Z,24.73
2023-02-15T19:48:02.464Z,22.23
2023-02-15T19:50:34.091Z,26.30
2023-02-15T19:53:03.730Z,19.80
2023-02-15T19:55:34.464Z,23.40
2023-02-15T19:58:04.188Z,19.80
2023-02-15T20:00:35.044Z,19.87
2023-02-15T20:03:04.633Z,19.80
2023-02-15T20:05:38.290Z,21.43
2023-02-15T20:08:08.864Z,26.73
2023-02-15T20:10:37.246Z,19.13
2023-02-15T20:13:05.342Z,20.30
2023-02-15T20:15:36.483Z,25.57
2023-02-15T20:18:06.817Z,18.80
2023-02-15T20:20:42.530Z,22.53
2023-02-15T20:23:21.098Z,24.67
2023-02-15T20:25:50.055Z,23.03
2023-02-15T20:28:21.254Z,26.17
2023-02-15T20:30:50.213Z,33.67
2023-02-15T20:33:21.701Z,28.63
2023-02-15T20:35:51.264Z,26.77
2023-02-15T20:38:22.667Z,24.60
2023-02-15T20:41:08.586Z,25.97
2023-02-15T20:43:36.907Z,25.43
2023-02-15T20:46:05.895Z,22.97
2023-02-15T20:48:35.585Z,25.97
2023-02-15T20:51:05.768Z,27.40
2023-02-15T20:53:34.023Z,22.07
2023-02-15T20:56:02.423Z,27.40
2023-02-15T20:58:31.670Z,26.57
2023-02-15T21:01:00.897Z,22.80
2023-02-15T21:03:31.476Z,23.33
2023-02-15T21:06:01.738Z,23.80
2023-02-15T21:08:30.984Z,20.60
2023-02-15T21:11:00.742Z,17.13
2023-02-15T21:13:34.352Z,17.77
2023-02-15T21:16:04.381Z,18.77
2023-02-15T21:18:35.185Z,20.43
2023-02-15T21:21:06.911Z,19.40
2023-02-15T21:23:38.434Z,21.90
2023-02-15T21:26:07.585Z,16.90
2023-02-15T21:28:35.602Z,24.90
2023-02-15T21:31:04.029Z,20.67
2023-02-15T21:33:32.414Z,21.33
2023-02-15T21:36:05.601Z,21.83
2023-02-15T21:38:35.169Z,22.50
2023-02-15T21:41:23.387Z,20.17
2023-02-15T21:44:09.225Z,21.43
2023-02-15T21:46:55.108Z,21.00
2023-02-15T21:49:23.159Z,20.67
2023-02-15T21:52:09.706Z,19.13
2023-02-15T21:54:39.883Z,20.93
2023-02-15T21:57:13.749Z,17.90
2023-02-15T21:59:42.979Z,17.60
2023-02-15T22:02:30.447Z,15.23
2023-02-15T22:05:00.046Z,15.00
2023-02-15T22:07:28.806Z,22.77
2023-02-15T22:09:58.257Z,19.80
2023-02-15T22:12:26.354Z,18.93
2023-02-15T22:14:55.254Z,19.47
2023-02-15T22:17:26.823Z,21.97
2023-02-15T22:19:55.088Z,18.93
2023-02-15T22:22:23.271Z,20.63
2023-02-15T22:24:51.368Z,16.07
2023-02-15T22:27:25.632Z,16.90
2023-02-15T22:29:55.049Z,20.33
2023-02-15T22:32:25.545Z,21.87
2023-02-15T22:34:54.894Z,17.63
2023-02-15T22:37:23.228Z,17.23
2023-02-15T22:39:51.572Z,16.50
2023-02-15T22:42:27.347Z,18.83
2023-02-15T22:44:57.408Z,18.77
2023-02-15T22:47:28.946Z,16.70
2023-02-15T22:49:57.233Z,17.37
2023-02-15T22:52:25.429Z,19.00
2023-02-15T22:54:53.489Z,17.93
2023-02-15T22:57:30.216Z,18.57
2023-02-15T22:59:59.420Z,13.87
2023-02-15T23:02:27.817Z,16.80
2023-02-15T23:04:55.919Z,19.70
2023-02-15T23:07:24.075Z,14.00
2023-02-15T23:09:52.207Z,18.50
2023-02-15T23:12:28.171Z,15.70
2023-02-15T23:14:57.858Z,16.80
2023-02-15T23:17:25.946Z,19.13
2023-02-15T23:19:54.021Z,15.03
2023-02-15T23:22:22.291Z,13.20
2023-02-15T23:24:53.804Z,13.73
2023-02-15T23:27:39.758Z,13.47
2023-02-15T23:30:15.354Z,14.87
2023-02-15T23:32:43.513Z,12.80
2023-02-15T23:35:16.017Z,16.17
2023-02-15T23:37:44.268Z,14.67
2023-02-15T23:40:48.171Z,17.83
2023-02-15T23:43:22.658Z,13.60
2023-02-15T23:45:52.179Z,16.50
2023-02-15T23:48:32.665Z,15.27
2023-02-15T23:51:01.688Z,16.40
2023-02-15T23:53:30.084Z,14.90
2023-02-15T23:55:59.088Z,13.07
2023-02-15T23:58:37.520Z,16.33
